Bayberry, New York
Current Conditions -  °F | °C
As of 1:54 AM on Saturday 25 Oct 2014 (Local Time) from KSYR Reporting Station
Scattered Clouds Scattered Clouds  
Wind Chill: 43°   Ceiling: Unl
Heat Index: 48°   Visibility: 10mi
Dew Point: 42°   Wind: 12mph
Humidity: 80%   Direction: 250°WSW
Pressure: 29.88"   Gusts: NA
Location:  43.1489°N, 76.2142°W
Report Text: KSYR 250554Z 25010KT 10SM SCT230 09/06 A2988 RMK AO2 SLP116 SCT V BKN T00890056 10089 20078 58012
Loading
Personal Weather Stations






























Interactive Weather Map New forecast layout! Learn more

10-Day Weather Forecast

Advertisements
Track Severe Weather on mobile